createdAt,value
2019-05-23T00:00:52.327Z,99.90
2019-05-23T00:06:03.755Z,99.90
2019-05-23T00:11:33.028Z,99.90
2019-05-23T00:16:38.927Z,99.90
2019-05-23T00:21:42.848Z,99.90
2019-05-23T00:26:48.253Z,99.90
2019-05-23T00:32:02.758Z,99.90
2019-05-23T00:37:07.362Z,99.90
2019-05-23T00:42:17.257Z,99.90
2019-05-23T00:47:24.701Z,99.90
2019-05-23T00:52:38.328Z,99.90
2019-05-23T00:57:44.441Z,99.90
2019-05-23T01:02:49.182Z,99.90
2019-05-23T01:07:56.948Z,99.90
2019-05-23T01:13:06.673Z,99.90
2019-05-23T01:18:13.022Z,99.90
2019-05-23T01:23:18.552Z,99.90
2019-05-23T01:28:24.971Z,99.90
2019-05-23T01:33:29.293Z,99.90
2019-05-23T01:38:42.893Z,99.90
2019-05-23T01:43:48.191Z,99.90
2019-05-23T01:48:53.219Z,99.90
2019-05-23T01:53:58.510Z,99.90
2019-05-23T01:59:03.564Z,99.90
2019-05-23T02:04:09.031Z,99.90
2019-05-23T02:09:14.468Z,99.90
2019-05-23T02:14:18.375Z,99.90
2019-05-23T02:19:25.368Z,99.90
2019-05-23T02:24:29.913Z,99.90
2019-05-23T02:29:33.791Z,99.90
2019-05-23T02:34:41.763Z,99.90
2019-05-23T02:39:53.953Z,99.90
2019-05-23T02:45:00.902Z,99.90
2019-05-23T02:50:14.696Z,99.90
2019-05-23T02:55:22.173Z,99.90
2019-05-23T03:00:54.981Z,99.90
2019-05-23T03:05:59.495Z,99.90
2019-05-23T03:11:16.941Z,99.90
2019-05-23T03:16:24.348Z,99.90
2019-05-23T03:21:28.686Z,99.90
2019-05-23T03:26:51.731Z,99.90
2019-05-23T03:32:06.835Z,99.90
2019-05-23T03:37:12.169Z,99.90
2019-05-23T03:42:16.677Z,99.90
2019-05-23T03:47:20.830Z,99.90
2019-05-23T03:52:25.613Z,99.90
2019-05-23T03:57:30.078Z,99.90
2019-05-23T04:02:34.446Z,99.90
2019-05-23T04:07:38.981Z,99.90
2019-05-23T04:12:44.172Z,99.90
2019-05-23T04:17:48.228Z,99.90
2019-05-23T04:22:51.992Z,99.90
2019-05-23T04:27:56.529Z,99.90
2019-05-23T04:33:00.404Z,99.90
2019-05-23T04:38:04.708Z,99.90
2019-05-23T04:43:08.330Z,99.90
2019-05-23T04:48:12.415Z,99.90
2019-05-23T04:53:16.356Z,99.90
2019-05-23T04:58:20.606Z,99.90
2019-05-23T05:03:24.667Z,99.90
2019-05-23T05:08:28.820Z,99.90
2019-05-23T05:13:32.435Z,99.90
2019-05-23T05:18:37.049Z,99.90
2019-05-23T05:23:41.028Z,99.90
2019-05-23T05:28:44.921Z,99.90
2019-05-23T05:33:48.602Z,99.90
2019-05-23T05:38:53.038Z,99.90
2019-05-23T05:43:57.229Z,99.90
2019-05-23T05:49:02.792Z,99.90
2019-05-23T05:54:07.445Z,99.90
2019-05-23T05:59:11.395Z,99.90
2019-05-23T06:04:15.644Z,99.90
2019-05-23T06:09:21.158Z,99.90
2019-05-23T06:14:25.010Z,99.90
2019-05-23T06:19:29.753Z,99.90
2019-05-23T06:24:45.290Z,99.90
2019-05-23T06:29:39.731Z,99.90
2019-05-23T06:34:43.518Z,99.90
2019-05-23T06:39:47.471Z,99.90
2019-05-23T06:44:51.075Z,99.90
2019-05-23T06:49:54.751Z,99.90
2019-05-23T06:54:59.881Z,99.90
2019-05-23T07:00:05.604Z,99.90
2019-05-23T07:05:09.293Z,99.90
2019-05-23T07:10:13.528Z,99.90
2019-05-23T07:15:17.304Z,99.90
2019-05-23T07:20:22.271Z,99.90
2019-05-23T07:25:26.145Z,99.90
2019-05-23T07:30:30.211Z,99.90
2019-05-23T07:35:34.228Z,99.90
2019-05-23T07:40:38.193Z,99.90
2019-05-23T07:45:44.189Z,99.90
2019-05-23T07:50:47.810Z,99.90
2019-05-23T07:55:53.206Z,99.90
2019-05-23T08:01:07.709Z,99.90
2019-05-23T08:06:12.057Z,99.90
2019-05-23T08:11:15.708Z,99.90
2019-05-23T08:16:19.764Z,99.90
2019-05-23T08:21:23.527Z,99.90
2019-05-23T08:26:27.937Z,99.90
2019-05-23T08:31:32.073Z,99.90
2019-05-23T08:36:35.764Z,99.90
2019-05-23T08:41:39.687Z,99.90
2019-05-23T08:46:43.737Z,99.90
2019-05-23T08:51:47.715Z,99.90
2019-05-23T08:56:51.333Z,99.90
2019-05-23T09:01:55.006Z,99.90
2019-05-23T09:06:59.396Z,99.90
2019-05-23T09:12:04.916Z,99.90
2019-05-23T09:17:08.703Z,99.90
2019-05-23T09:22:12.402Z,99.90
2019-05-23T09:27:16.043Z,99.90
2019-05-23T09:32:19.807Z,99.90
2019-05-23T09:37:23.791Z,99.90
2019-05-23T09:42:27.378Z,99.90
2019-05-23T09:47:31.363Z,99.90
2019-05-23T09:52:35.395Z,99.90
2019-05-23T09:57:39.150Z,99.90
2019-05-23T10:02:42.988Z,98.90
2019-05-23T10:07:46.684Z,99.60
2019-05-23T10:12:50.302Z,99.90
2019-05-23T10:17:53.901Z,98.50
2019-05-23T10:22:57.591Z,98.90
2019-05-23T10:28:01.329Z,99.90
2019-05-23T10:33:11.609Z,99.90
2019-05-23T10:38:11.018Z,99.20
2019-05-23T10:43:14.790Z,99.90
2019-05-23T10:48:21.199Z,98.40
2019-05-23T10:53:25.059Z,98.60
2019-05-23T10:58:28.811Z,97.80
2019-05-23T11:03:32.554Z,99.10
2019-05-23T11:08:36.778Z,97.50
2019-05-23T11:13:40.879Z,98.10
2019-05-23T11:18:44.743Z,97.30
2019-05-23T11:23:50.350Z,93.40
2019-05-23T11:28:54.279Z,80.30
2019-05-23T11:33:57.971Z,90.40
2019-05-23T11:39:01.665Z,88.70
2019-05-23T11:44:05.995Z,88.50
2019-05-23T11:49:09.772Z,87.40
2019-05-23T11:54:13.612Z,84.60
2019-05-23T11:59:17.380Z,85.40
2019-05-23T12:04:22.066Z,73.00
2019-05-23T12:09:27.683Z,66.20
2019-05-23T12:14:31.481Z,71.00
2019-05-23T12:19:35.298Z,67.80
2019-05-23T12:24:39.456Z,67.50
2019-05-23T12:29:43.385Z,63.50
2019-05-23T12:35:08.022Z,59.60
2019-05-23T12:39:52.746Z,61.20
2019-05-23T12:44:56.456Z,59.90
2019-05-23T12:50:01.934Z,56.50
2019-05-23T12:55:05.784Z,61.20
2019-05-23T13:00:27.870Z,57.50
2019-05-23T13:05:32.008Z,53.70
2019-05-23T13:10:35.669Z,57.50
2019-05-23T13:15:39.768Z,53.70
2019-05-23T13:20:43.690Z,55.40
2019-05-23T13:25:47.486Z,52.30
2019-05-23T13:30:51.778Z,53.50
2019-05-23T13:35:55.535Z,56.50
2019-05-23T13:40:59.226Z,54.70
2019-05-23T13:46:02.980Z,57.70
2019-05-23T13:51:06.609Z,54.80
2019-05-23T13:56:10.288Z,59.10
2019-05-23T14:01:14.179Z,58.70
2019-05-23T14:06:17.844Z,55.50
2019-05-23T14:11:21.580Z,56.90
2019-05-23T14:16:27.009Z,47.60
2019-05-23T14:21:32.399Z,52.30
2019-05-23T14:26:37.893Z,52.40
2019-05-23T14:31:43.155Z,50.10
2019-05-23T14:37:00.475Z,51.00
2019-05-23T14:42:08.573Z,53.00
2019-05-23T14:47:21.666Z,53.40
2019-05-23T14:52:27.995Z,52.70
2019-05-23T14:57:32.286Z,54.20
2019-05-23T15:02:36.136Z,55.20
2019-05-23T15:07:39.897Z,55.30
2019-05-23T15:12:43.575Z,54.30
2019-05-23T15:17:47.280Z,56.00
2019-05-23T15:22:51.435Z,50.70
2019-05-23T15:27:55.395Z,44.70
2019-05-23T15:32:59.091Z,46.20
2019-05-23T15:38:02.966Z,46.60
2019-05-23T15:43:09.725Z,48.50
2019-05-23T15:48:12.236Z,47.00
2019-05-23T15:53:26.392Z,47.20
2019-05-23T15:58:31.795Z,47.00
2019-05-23T16:03:37.055Z,47.50
2019-05-23T16:08:40.934Z,46.00
2019-05-23T16:13:44.680Z,47.40
2019-05-23T16:18:48.490Z,51.70
2019-05-23T16:23:52.247Z,48.40
2019-05-23T16:28:55.965Z,50.10
2019-05-23T16:33:59.638Z,50.90
2019-05-23T16:39:03.358Z,54.10
2019-05-23T16:44:07.516Z,50.60
2019-05-23T16:49:11.202Z,51.50
2019-05-23T16:54:16.539Z,46.50
2019-05-23T16:59:21.858Z,46.30
2019-05-23T17:04:35.947Z,44.70
2019-05-23T17:09:43.948Z,45.60
2019-05-23T17:15:05.566Z,47.40
2019-05-23T17:20:20.104Z,46.90
2019-05-23T17:25:42.214Z,48.50
2019-05-23T17:30:50.743Z,47.30
2019-05-23T17:35:54.618Z,45.70
2019-05-23T17:40:58.518Z,45.40
2019-05-23T17:46:02.619Z,45.40
2019-05-23T17:51:06.291Z,45.70
2019-05-23T17:56:10.452Z,47.40
2019-05-23T18:01:14.620Z,48.60
2019-05-23T18:06:18.304Z,49.00
2019-05-23T18:11:21.917Z,48.50
2019-05-23T18:16:25.575Z,48.80
2019-05-23T18:21:29.314Z,51.50
2019-05-23T18:26:33.030Z,52.60
2019-05-23T18:31:38.411Z,53.00
2019-05-23T18:36:42.546Z,52.20
2019-05-23T18:41:46.394Z,52.80
2019-05-23T18:46:57.870Z,54.00
2019-05-23T18:52:01.663Z,55.70
2019-05-23T18:57:05.337Z,60.90
2019-05-23T19:02:09.759Z,62.40
2019-05-23T19:07:13.543Z,62.80
2019-05-23T19:12:17.409Z,68.00
2019-05-23T19:17:21.442Z,69.80
2019-05-23T19:22:25.190Z,74.50
2019-05-23T19:27:28.938Z,79.40
2019-05-23T19:32:32.603Z,75.30
2019-05-23T19:37:36.440Z,78.60
2019-05-23T19:42:40.914Z,78.90
2019-05-23T19:47:44.523Z,82.60
2019-05-23T19:52:48.846Z,83.90
2019-05-23T19:57:52.440Z,89.90
2019-05-23T20:03:03.903Z,90.50
2019-05-23T20:08:07.042Z,93.20
2019-05-23T20:13:10.883Z,93.40
2019-05-23T20:18:15.432Z,95.10
2019-05-23T20:23:19.503Z,96.10
2019-05-23T20:28:23.488Z,96.50
2019-05-23T20:33:27.233Z,97.20
2019-05-23T20:38:30.919Z,98.80
2019-05-23T20:43:34.586Z,99.40
2019-05-23T20:48:38.557Z,99.90
2019-05-23T20:53:42.789Z,99.90
2019-05-23T20:58:46.381Z,99.90
2019-05-23T21:03:51.356Z,99.90
2019-05-23T21:08:55.014Z,99.90
2019-05-23T21:14:00.836Z,99.90
2019-05-23T21:19:04.572Z,99.90
2019-05-23T21:24:09.935Z,99.90
2019-05-23T21:29:16.413Z,99.90
2019-05-23T21:34:22.250Z,99.90
2019-05-23T21:39:28.961Z,99.90
2019-05-23T21:44:32.696Z,99.90
2019-05-23T21:49:36.306Z,99.90
2019-05-23T21:54:39.914Z,99.90
2019-05-23T21:59:43.508Z,99.90
2019-05-23T22:04:48.827Z,99.90
2019-05-23T22:09:53.168Z,99.90
2019-05-23T22:14:59.482Z,99.90
2019-05-23T22:20:04.223Z,99.90
2019-05-23T22:25:31.611Z,99.90
2019-05-23T22:30:35.844Z,99.90
2019-05-23T22:35:39.527Z,99.90
2019-05-23T22:40:43.136Z,99.90
2019-05-23T22:45:46.914Z,99.90
2019-05-23T22:50:52.377Z,99.90
2019-05-23T22:55:57.859Z,99.90
2019-05-23T23:01:01.379Z,99.90
2019-05-23T23:06:05.425Z,99.90
2019-05-23T23:11:10.207Z,99.90
2019-05-23T23:16:13.822Z,99.90
2019-05-23T23:21:17.496Z,99.90
2019-05-23T23:26:21.108Z,99.90
2019-05-23T23:31:28.189Z,99.90
2019-05-23T23:36:32.832Z,99.90
2019-05-23T23:41:36.395Z,99.90
2019-05-23T23:46:58.230Z,99.90
2019-05-23T23:52:19.834Z,99.90
2019-05-23T23:57:41.370Z,99.90
